sensor_id;sensor_type;location;lat;lon;timestamp;P1;P4;P2;P0;N10;N4;N25;N1;N05;TS
71906;SPS30;59781;52.090;5.030;2023-01-15T00:01:16;5.63;5.36;4.04;2.28;18.42;18.37;18.08;16.32;11.38;0.93
71906;SPS30;59781;52.090;5.030;2023-01-15T00:03:45;5.65;5.40;4.12;2.41;19.43;19.38;19.10;17.39;12.37;0.91
71906;SPS30;59781;52.090;5.030;2023-01-15T00:06:11;5.41;5.17;3.95;2.32;18.72;18.67;18.41;16.78;11.97;0.89
71906;SPS30;59781;52.090;5.030;2023-01-15T00:08:37;5.69;5.42;4.09;2.32;18.73;18.68;18.40;16.63;11.63;0.92
71906;SPS30;59781;52.090;5.030;2023-01-15T00:11:03;5.90;5.62;4.23;2.37;19.16;19.11;18.81;16.96;11.79;0.92
71906;SPS30;59781;52.090;5.030;2023-01-15T00:13:29;6.58;6.26;4.62;2.45;19.81;19.75;19.39;17.22;11.55;0.96
71906;SPS30;59781;52.090;5.030;2023-01-15T00:16:09;6.67;6.33;4.65;2.43;19.65;19.59;19.22;17.00;11.28;0.99
71906;SPS30;59781;52.090;5.030;2023-01-15T00:18:42;6.23;5.92;4.39;2.36;19.09;19.03;18.70;16.67;11.28;0.95
71906;SPS30;59781;52.090;5.030;2023-01-15T00:21:13;5.78;5.50;4.12;2.27;18.39;18.34;18.04;16.20;11.16;0.93
71906;SPS30;59781;52.090;5.030;2023-01-15T00:23:39;6.08;5.79;4.32;2.37;19.20;19.14;18.83;16.88;11.58;0.94
71906;SPS30;59781;52.090;5.030;2023-01-15T00:26:26;7.09;6.74;5.03;2.75;22.26;22.20;21.83;19.55;13.39;0.96
71906;SPS30;59781;52.090;5.030;2023-01-15T00:29:14;6.40;6.09;4.53;2.47;19.95;19.89;19.55;17.49;11.93;0.96
71906;SPS30;59781;52.090;5.030;2023-01-15T00:31:41;6.72;6.39;4.72;2.52;20.43;20.36;20.00;17.80;12.00;0.96
71906;SPS30;59781;52.090;5.030;2023-01-15T00:34:16;6.02;5.72;4.24;2.28;18.45;18.39;18.07;16.11;10.91;0.95
71906;SPS30;59781;52.090;5.030;2023-01-15T00:36:43;6.58;6.26;4.67;2.55;20.66;20.60;20.25;18.14;12.42;0.94
71906;SPS30;59781;52.090;5.030;2023-01-15T00:39:08;5.94;5.66;4.22;2.31;18.72;18.66;18.35;16.45;11.28;0.95
71906;SPS30;59781;52.090;5.030;2023-01-15T00:41:34;6.37;6.06;4.53;2.49;20.13;20.08;19.74;17.71;12.16;0.95
71906;SPS30;59781;52.090;5.030;2023-01-15T00:44:00;7.36;6.99;5.16;2.74;22.16;22.09;21.69;19.27;12.93;0.98
71906;SPS30;59781;52.090;5.030;2023-01-15T00:46:26;7.16;6.79;4.96;2.55;20.63;20.56;20.17;17.75;11.64;1.00
71906;SPS30;59781;52.090;5.030;2023-01-15T00:48:52;7.67;7.29;5.37;2.84;23.02;22.95;22.53;20.00;13.39;0.98
71906;SPS30;59781;52.090;5.030;2023-01-15T00:51:18;6.43;6.13;4.62;2.60;20.98;20.92;20.60;18.58;12.94;0.94
71906;SPS30;59781;52.090;5.030;2023-01-15T00:53:43;6.07;5.79;4.40;2.53;20.43;20.37;20.07;18.21;12.85;0.93
71906;SPS30;59781;52.090;5.030;2023-01-15T00:56:09;5.70;5.43;4.09;2.30;18.57;18.52;18.23;16.44;11.44;0.94
71906;SPS30;59781;52.090;5.030;2023-01-15T00:58:35;6.57;6.26;4.70;2.63;21.29;21.23;20.89;18.83;13.07;0.94
71906;SPS30;59781;52.090;5.030;2023-01-15T01:01:01;7.36;6.99;5.16;2.74;22.17;22.10;21.71;19.29;12.95;0.97
71906;SPS30;59781;52.090;5.030;2023-01-15T01:03:27;8.23;7.81;5.73;2.98;24.13;24.05;23.60;20.85;13.79;0.99
71906;SPS30;59781;52.090;5.030;2023-01-15T01:05:58;6.82;6.48;4.76;2.49;20.16;20.09;19.72;17.45;11.60;0.98
71906;SPS30;59781;52.090;5.030;2023-01-15T01:08:26;7.05;6.70;4.94;2.62;21.24;21.17;20.80;18.48;12.40;0.98
71906;SPS30;59781;52.090;5.030;2023-01-15T01:11:00;6.90;6.55;4.82;2.54;20.55;20.48;20.11;17.82;11.89;0.99
71906;SPS30;59781;52.090;5.030;2023-01-15T01:13:34;6.98;6.63;4.86;2.54;20.59;20.53;20.15;17.82;11.83;1.00
71906;SPS30;59781;52.090;5.030;2023-01-15T01:16:02;6.98;6.63;4.87;2.54;20.60;20.54;20.16;17.83;11.84;1.00
71906;SPS30;59781;52.090;5.030;2023-01-15T01:18:29;7.07;6.70;4.89;2.50;20.29;20.22;19.83;17.44;11.41;1.01
71906;SPS30;59781;52.090;5.030;2023-01-15T01:20:55;7.24;6.87;5.00;2.54;20.58;20.51;20.11;17.65;11.48;1.01
71906;SPS30;59781;52.090;5.030;2023-01-15T01:23:22;6.50;6.17;4.54;2.39;19.38;19.32;18.97;16.82;11.23;0.97
71906;SPS30;59781;52.090;5.030;2023-01-15T01:25:49;6.85;6.51;4.85;2.64;21.39;21.32;20.97;18.76;12.81;0.95
71906;SPS30;59781;52.090;5.030;2023-01-15T01:28:15;6.71;6.38;4.73;2.55;20.65;20.59;20.23;18.05;12.24;0.97
71906;SPS30;59781;52.090;5.030;2023-01-15T01:30:41;7.27;6.91;5.10;2.71;21.92;21.86;21.47;19.07;12.81;0.98
71906;SPS30;59781;52.090;5.030;2023-01-15T01:33:06;9.72;9.27;7.06;4.10;33.08;32.99;32.52;29.56;20.95;0.92
71906;SPS30;59781;52.090;5.030;2023-01-15T01:35:33;5.40;5.16;3.97;2.36;19.04;18.99;18.74;17.14;12.31;0.91
71906;SPS30;59781;52.090;5.030;2023-01-15T01:37:58;5.50;5.25;4.00;2.33;18.80;18.75;18.48;16.81;11.93;0.91
71906;SPS30;59781;52.090;5.030;2023-01-15T01:40:24;5.89;5.61;4.22;2.37;19.12;19.07;18.77;16.92;11.75;0.93
71906;SPS30;59781;52.090;5.030;2023-01-15T01:42:50;6.31;6.01;4.48;2.44;19.77;19.72;19.39;17.36;11.87;0.95
71906;SPS30;59781;52.090;5.030;2023-01-15T01:45:18;6.71;6.37;4.71;2.51;20.34;20.28;19.92;17.72;11.93;0.98
71906;SPS30;59781;52.090;5.030;2023-01-15T01:47:51;7.84;7.44;5.45;2.82;22.88;22.81;22.38;19.75;13.04;0.99
71906;SPS30;59781;52.090;5.030;2023-01-15T01:50:27;6.21;5.91;4.40;2.40;19.38;19.33;19.00;17.00;11.60;0.96
71906;SPS30;59781;52.090;5.030;2023-01-15T01:53:04;6.62;6.30;4.70;2.59;20.92;20.86;20.52;18.40;12.64;0.98
71906;SPS30;59781;52.090;5.030;2023-01-15T01:55:39;6.54;6.22;4.64;2.53;20.48;20.42;20.07;17.97;12.29;0.99
71906;SPS30;59781;52.090;5.030;2023-01-15T01:58:06;6.32;6.01;4.46;2.40;19.45;19.39;19.06;17.00;11.53;1.00
71906;SPS30;59781;52.090;5.030;2023-01-15T02:00:37;6.82;6.48;4.79;2.55;20.62;20.56;20.19;17.95;12.07;1.00
71906;SPS30;59781;52.090;5.030;2023-01-15T02:03:14;6.23;5.93;4.42;2.41;19.47;19.41;19.08;17.07;11.66;0.97
71906;SPS30;59781;52.090;5.030;2023-01-15T02:05:48;7.00;6.65;4.89;2.57;20.82;20.75;20.37;18.05;12.03;1.01
71906;SPS30;59781;52.090;5.030;2023-01-15T02:08:20;7.46;7.08;5.20;2.71;21.97;21.90;21.49;19.00;12.61;1.02
71906;SPS30;59781;52.090;5.030;2023-01-15T02:10:48;6.43;6.11;4.52;2.42;19.61;19.55;19.21;17.11;11.55;0.99
71906;SPS30;59781;52.090;5.030;2023-01-15T02:13:30;6.65;6.31;4.66;2.48;20.08;20.01;19.66;17.47;11.74;0.99
71906;SPS30;59781;52.090;5.030;2023-01-15T02:19:29;7.27;6.90;5.01;2.54;20.59;20.52;20.11;17.63;11.45;1.03
71906;SPS30;59781;52.090;5.030;2023-01-15T02:22:54;6.66;6.32;4.65;2.45;19.81;19.75;19.39;17.18;11.46;0.99
71906;SPS30;59781;52.090;5.030;2023-01-15T02:25:32;6.85;6.51;4.76;2.47;19.98;19.92;19.54;17.24;11.38;1.01
71906;SPS30;59781;52.090;5.030;2023-01-15T02:28:21;7.01;6.66;4.90;2.57;20.81;20.74;20.36;18.03;12.01;0.99
71906;SPS30;59781;52.090;5.030;2023-01-15T02:31:07;6.24;5.92;4.31;2.20;17.87;17.81;17.47;15.35;10.04;1.02
71906;SPS30;59781;52.090;5.030;2023-01-15T02:33:37;6.82;6.48;4.73;2.44;19.76;19.69;19.32;17.02;11.19;0.99
71906;SPS30;59781;52.090;5.030;2023-01-15T02:36:15;5.92;5.63;4.14;2.18;17.63;17.57;17.25;15.29;10.20;0.98
71906;SPS30;59781;52.090;5.030;2023-01-15T02:38:50;6.16;5.84;4.27;2.21;17.87;17.81;17.48;15.41;10.14;0.99
71906;SPS30;59781;52.090;5.030;2023-01-15T02:41:27;6.32;6.00;4.37;2.24;18.16;18.10;17.75;15.61;10.22;0.99
71906;SPS30;59781;52.090;5.030;2023-01-15T02:44:04;6.71;6.37;4.68;2.45;19.81;19.75;19.38;17.14;11.38;0.99
71906;SPS30;59781;52.090;5.030;2023-01-15T02:46:37;6.18;5.87;4.30;2.24;18.13;18.07;17.74;15.67;10.37;0.99
71906;SPS30;59781;52.090;5.030;2023-01-15T02:49:09;8.39;7.96;5.81;2.98;24.17;24.09;23.63;20.80;13.64;1.00
71906;SPS30;59781;52.090;5.030;2023-01-15T02:51:48;7.23;6.85;4.95;2.46;19.94;19.87;19.46;16.96;10.85;1.03
71906;SPS30;59781;52.090;5.030;2023-01-15T02:54:32;7.15;6.78;4.94;2.52;20.41;20.34;19.94;17.52;11.43;1.01
71906;SPS30;59781;52.090;5.030;2023-01-15T02:57:13;8.35;7.91;5.71;2.83;22.94;22.86;22.38;19.49;12.43;1.03
71906;SPS30;59781;52.090;5.030;2023-01-15T02:59:51;7.40;7.02;5.09;2.56;20.72;20.65;20.24;17.70;11.42;1.02
71906;SPS30;59781;52.090;5.030;2023-01-15T03:02:26;6.96;6.60;4.83;2.49;20.18;20.11;19.73;17.39;11.44;0.99
71906;SPS30;59781;52.090;5.030;2023-01-15T03:05:10;7.40;7.03;5.16;2.69;21.76;21.69;21.29;18.82;12.47;1.00
71906;SPS30;59781;52.090;5.030;2023-01-15T03:07:49;7.16;6.80;4.97;2.57;20.80;20.73;20.34;17.93;11.81;1.02
71906;SPS30;59781;52.090;5.030;2023-01-15T03:10:30;6.79;6.45;4.71;2.43;19.68;19.62;19.25;16.96;11.15;1.02
71906;SPS30;59781;52.090;5.030;2023-01-15T03:13:00;6.69;6.35;4.65;2.41;19.53;19.47;19.10;16.86;11.13;1.03
71906;SPS30;59781;52.090;5.030;2023-01-15T03:18:52;5.94;5.65;4.19;2.26;18.26;18.20;17.89;15.96;10.82;0.99
71906;SPS30;59781;52.090;5.030;2023-01-15T03:21:43;6.42;6.10;4.51;2.40;19.44;19.38;19.04;16.93;11.39;1.01
71906;SPS30;59781;52.090;5.030;2023-01-15T03:27:38;6.76;6.41;4.71;2.45;19.88;19.82;19.45;17.20;11.40;1.01
71906;SPS30;59781;52.090;5.030;2023-01-15T03:32:39;6.16;5.86;4.34;2.33;18.87;18.82;18.49;16.48;11.15;0.98
71906;SPS30;59781;52.090;5.030;2023-01-15T03:35:06;6.63;6.30;4.68;2.53;20.47;20.40;20.05;17.90;12.16;0.99
71906;SPS30;59781;52.090;5.030;2023-01-15T03:38:11;6.76;6.43;4.77;2.57;20.82;20.75;20.39;18.20;12.34;0.99
71906;SPS30;59781;52.090;5.030;2023-01-15T03:40:48;5.81;5.53;4.12;2.25;18.17;18.12;17.82;15.95;10.90;0.96
71906;SPS30;59781;52.090;5.030;2023-01-15T03:43:54;6.06;5.76;4.27;2.29;18.54;18.49;18.16;16.19;10.95;0.97
71906;SPS30;59781;52.090;5.030;2023-01-15T03:52:47;4.66;4.44;3.34;1.88;15.18;15.14;14.90;13.44;9.35;0.94
71906;SPS30;59781;52.090;5.030;2023-01-15T03:55:54;5.65;5.38;4.01;2.19;17.70;17.65;17.35;15.53;10.62;0.95
71906;SPS30;59781;52.090;5.030;2023-01-15T03:58:51;6.21;5.91;4.39;2.38;19.27;19.22;18.89;16.88;11.49;0.96
71906;SPS30;59781;52.090;5.030;2023-01-15T04:01:35;5.07;4.84;3.64;2.05;16.60;16.55;16.29;14.71;10.25;0.94
71906;SPS30;59781;52.090;5.030;2023-01-15T04:04:07;5.23;4.99;3.79;2.19;17.66;17.61;17.35;15.75;11.12;0.92
71906;SPS30;59781;52.090;5.030;2023-01-15T04:06:38;5.28;5.04;3.81;2.16;17.47;17.43;17.16;15.52;10.87;0.94
71906;SPS30;59781;52.090;5.030;2023-01-15T04:09:08;5.43;5.18;3.90;2.20;17.77;17.72;17.45;15.75;10.98;0.95
71906;SPS30;59781;52.090;5.030;2023-01-15T04:11:38;5.93;5.66;4.29;2.47;19.94;19.89;19.60;17.78;12.54;0.93
71906;SPS30;59781;52.090;5.030;2023-01-15T04:14:05;6.13;5.84;4.38;2.43;19.63;19.58;19.26;17.32;11.96;0.96
71906;SPS30;59781;52.090;5.030;2023-01-15T04:16:45;6.19;5.88;4.33;2.29;18.53;18.47;18.14;16.09;10.76;0.99
71906;SPS30;59781;52.090;5.030;2023-01-15T04:19:12;5.57;5.29;3.89;2.05;16.61;16.56;16.26;14.41;9.62;0.99
71906;SPS30;59781;52.090;5.030;2023-01-15T04:21:45;5.82;5.53;4.08;2.17;17.57;17.52;17.21;15.29;10.27;0.99
71906;SPS30;59781;52.090;5.030;2023-01-15T04:24:11;6.38;6.07;4.48;2.38;19.24;19.18;18.84;16.73;11.23;0.98
71906;SPS30;59781;52.090;5.030;2023-01-15T04:26:37;6.26;5.94;4.37;2.29;18.57;18.51;18.17;16.09;10.72;0.98
71906;SPS30;59781;52.090;5.030;2023-01-15T04:29:02;6.08;5.77;4.20;2.15;17.39;17.33;17.00;14.93;9.75;1.00
71906;SPS30;59781;52.090;5.030;2023-01-15T04:31:28;6.46;6.12;4.42;2.19;17.81;17.75;17.38;15.15;9.68;1.04
71906;SPS30;59781;52.090;5.030;2023-01-15T04:33:56;6.08;5.76;4.15;2.05;16.62;16.56;16.22;14.10;8.97;1.05
71906;SPS30;59781;52.090;5.030;2023-01-15T04:36:22;6.50;6.16;4.43;2.17;17.58;17.52;17.15;14.88;9.40;1.04
71906;SPS30;59781;52.090;5.030;2023-01-15T04:38:48;6.35;6.01;4.33;2.14;17.35;17.28;16.92;14.72;9.36;1.03
71906;SPS30;59781;52.090;5.030;2023-01-15T04:41:13;6.74;6.39;4.65;2.37;19.19;19.13;18.75;16.46;10.72;1.00
71906;SPS30;59781;52.090;5.030;2023-01-15T04:43:58;6.34;6.02;4.40;2.27;18.42;18.36;18.01;15.88;10.46;1.00
71906;SPS30;59781;52.090;5.030;2023-01-15T04:46:33;7.36;6.98;5.07;2.56;20.77;20.70;20.29;17.78;11.53;1.03
71906;SPS30;59781;52.090;5.030;2023-01-15T04:49:05;6.74;6.39;4.62;2.31;18.72;18.65;18.27;15.96;10.25;1.04
71906;SPS30;59781;52.090;5.030;2023-01-15T04:51:35;7.03;6.66;4.84;2.44;19.80;19.73;19.34;16.93;10.96;1.03
71906;SPS30;59781;52.090;5.030;2023-01-15T04:54:03;7.54;7.15;5.21;2.65;21.51;21.44;21.02;18.46;12.04;1.04
71906;SPS30;59781;52.090;5.030;2023-01-15T04:56:35;6.29;5.97;4.39;2.30;18.63;18.57;18.23;16.14;10.74;1.01
71906;SPS30;59781;52.090;5.030;2023-01-15T04:59:08;6.37;6.05;4.49;2.43;19.64;19.58;19.24;17.18;11.66;0.98
71906;SPS30;59781;52.090;5.030;2023-01-15T05:01:35;5.38;5.12;3.82;2.09;16.93;16.88;16.60;14.88;10.20;0.97
71906;SPS30;59781;52.090;5.030;2023-01-15T05:04:01;5.86;5.58;4.14;2.23;18.07;18.02;17.71;15.81;10.73;0.97
71906;SPS30;59781;52.090;5.030;2023-01-15T05:06:28;6.16;5.86;4.35;2.36;19.06;19.00;18.68;16.68;11.34;0.98
71906;SPS30;59781;52.090;5.030;2023-01-15T05:08:55;6.68;6.34;4.67;2.45;19.85;19.79;19.43;17.21;11.47;1.00
71906;SPS30;59781;52.090;5.030;2023-01-15T05:11:23;6.67;6.33;4.63;2.39;19.38;19.31;18.95;16.70;11.00;1.01
71906;SPS30;59781;52.090;5.030;2023-01-15T05:13:49;6.10;5.80;4.28;2.27;18.38;18.33;18.00;15.99;10.73;0.99
71906;SPS30;59781;52.090;5.030;2023-01-15T05:16:15;6.03;5.73;4.24;2.26;18.32;18.26;17.94;15.96;10.76;1.00
71906;SPS30;59781;52.090;5.030;2023-01-15T05:18:46;6.14;5.83;4.29;2.26;18.33;18.27;17.94;15.90;10.63;1.01
71906;SPS30;59781;52.090;5.030;2023-01-15T05:21:16;5.50;5.22;3.84;2.02;16.34;16.29;15.99;14.17;9.45;1.00
71906;SPS30;59781;52.090;5.030;2023-01-15T05:23:45;6.19;5.88;4.32;2.27;18.41;18.35;18.02;15.96;10.64;1.00
71906;SPS30;59781;52.090;5.030;2023-01-15T05:26:12;6.08;5.78;4.29;2.30;18.64;18.58;18.26;16.27;11.01;0.99
71906;SPS30;59781;52.090;5.030;2023-01-15T05:28:38;5.89;5.60;4.15;2.22;17.98;17.93;17.61;15.69;10.59;0.98
71906;SPS30;59781;52.090;5.030;2023-01-15T05:31:05;5.99;5.69;4.21;2.25;18.20;18.15;17.82;15.86;10.69;0.98
71906;SPS30;59781;52.090;5.030;2023-01-15T05:33:42;5.09;4.84;3.58;1.92;15.57;15.52;15.25;13.59;9.19;0.97
71906;SPS30;59781;52.090;5.030;2023-01-15T05:36:11;5.05;4.80;3.57;1.93;15.66;15.61;15.34;13.71;9.33;0.95
71906;SPS30;59781;52.090;5.030;2023-01-15T05:38:42;4.93;4.69;3.47;1.86;15.05;15.00;14.74;13.12;8.86;0.96
71906;SPS30;59781;52.090;5.030;2023-01-15T05:41:10;5.27;5.02;3.74;2.04;16.48;16.43;16.15;14.45;9.87;0.96
71906;SPS30;59781;52.090;5.030;2023-01-15T05:44:00;5.67;5.38;3.94;2.05;16.58;16.53;16.22;14.32;9.47;1.00
71906;SPS30;59781;52.090;5.030;2023-01-15T05:46:29;5.89;5.59;4.07;2.08;16.83;16.77;16.45;14.45;9.43;1.01
71906;SPS30;59781;52.090;5.030;2023-01-15T05:49:01;5.19;4.93;3.64;1.93;15.60;15.55;15.27;13.56;9.09;0.98
71906;SPS30;59781;52.090;5.030;2023-01-15T05:51:32;4.62;4.39;3.24;1.72;13.95;13.90;13.66;12.14;8.16;0.98
71906;SPS30;59781;52.090;5.030;2023-01-15T05:53:59;4.94;4.69;3.46;1.83;14.84;14.79;14.53;12.90;8.64;0.97
71906;SPS30;59781;52.090;5.030;2023-01-15T05:56:26;4.63;4.40;3.23;1.68;13.64;13.60;13.35;11.80;7.83;1.00
71906;SPS30;59781;52.090;5.030;2023-01-15T05:58:52;5.03;4.77;3.47;1.76;14.28;14.23;13.95;12.24;7.96;1.03
71906;SPS30;59781;52.090;5.030;2023-01-15T06:01:18;4.92;4.66;3.36;1.66;13.43;13.39;13.11;11.40;7.24;1.05
71906;SPS30;59781;52.090;5.030;2023-01-15T06:03:45;4.37;4.14;3.02;1.54;12.49;12.44;12.20;10.72;7.00;1.01
71906;SPS30;59781;52.090;5.030;2023-01-15T06:06:13;4.60;4.37;3.20;1.66;13.48;13.43;13.18;11.64;7.70;1.00
71906;SPS30;59781;52.090;5.030;2023-01-15T06:08:42;4.65;4.41;3.24;1.69;13.69;13.64;13.39;11.84;7.85;0.99
71906;SPS30;59781;52.090;5.030;2023-01-15T06:11:09;4.78;4.54;3.34;1.75;14.18;14.14;13.88;12.29;8.19;0.99
71906;SPS30;59781;52.090;5.030;2023-01-15T06:13:35;4.75;4.51;3.30;1.71;13.82;13.78;13.52;11.92;7.85;1.01
71906;SPS30;59781;52.090;5.030;2023-01-15T06:16:03;4.95;4.70;3.44;1.79;14.48;14.43;14.16;12.51;8.27;1.01
71906;SPS30;59781;52.090;5.030;2023-01-15T06:18:31;4.76;4.52;3.33;1.76;14.27;14.23;13.97;12.40;8.30;1.01
71906;SPS30;59781;52.090;5.030;2023-01-15T06:21:01;4.86;4.62;3.41;1.82;14.72;14.68;14.42;12.82;8.63;1.00
71906;SPS30;59781;52.090;5.030;2023-01-15T06:23:34;5.06;4.80;3.53;1.85;14.99;14.95;14.67;12.99;8.65;1.01
71906;SPS30;59781;52.090;5.030;2023-01-15T06:26:02;5.23;4.96;3.65;1.91;15.44;15.39;15.10;13.36;8.88;1.01
71906;SPS30;59781;52.090;5.030;2023-01-15T06:28:32;5.08;4.82;3.53;1.83;14.82;14.77;14.49;12.79;8.44;0.99
71906;SPS30;59781;52.090;5.030;2023-01-15T06:30:59;5.60;5.33;3.93;2.08;16.83;16.78;16.47;14.62;9.80;0.96
71906;SPS30;59781;52.090;5.030;2023-01-15T06:33:28;5.15;4.89;3.63;1.96;15.88;15.84;15.56;13.89;9.43;0.95
71906;SPS30;59781;52.090;5.030;2023-01-15T06:35:53;5.12;4.87;3.61;1.94;15.74;15.69;15.42;13.75;9.31;0.95
71906;SPS30;59781;52.090;5.030;2023-01-15T06:38:19;5.22;4.96;3.68;1.98;16.05;16.00;15.72;14.02;9.51;0.95
71906;SPS30;59781;52.090;5.030;2023-01-15T06:40:45;4.84;4.59;3.38;1.78;14.39;14.34;14.08;12.48;8.32;0.98
71906;SPS30;59781;52.090;5.030;2023-01-15T06:43:11;4.59;4.35;3.17;1.63;13.19;13.15;12.89;11.34;7.43;1.00
71906;SPS30;59781;52.090;5.030;2023-01-15T06:45:56;5.15;4.89;3.58;1.87;15.13;15.08;14.80;13.08;8.67;0.98
71906;SPS30;59781;52.090;5.030;2023-01-15T06:48:40;4.82;4.58;3.40;1.83;14.78;14.74;14.48;12.91;8.74;0.96
71906;SPS30;59781;52.090;5.030;2023-01-15T06:51:07;5.01;4.76;3.48;1.81;14.63;14.58;14.31;12.63;8.34;0.99
71906;SPS30;59781;52.090;5.030;2023-01-15T06:53:33;5.44;5.16;3.77;1.93;15.65;15.60;15.30;13.46;8.81;0.99
71906;SPS30;59781;52.090;5.030;2023-01-15T06:56:00;5.11;4.85;3.54;1.81;14.64;14.59;14.31;12.58;8.22;1.00
71906;SPS30;59781;52.090;5.030;2023-01-15T06:58:26;5.46;5.17;3.76;1.89;15.35;15.30;14.99;13.13;8.49;1.02
71906;SPS30;59781;52.090;5.030;2023-01-15T07:00:51;5.11;4.85;3.53;1.80;14.62;14.57;14.29;12.56;8.20;1.01
71906;SPS30;59781;52.090;5.030;2023-01-15T07:03:21;5.23;4.96;3.61;1.85;14.99;14.94;14.65;12.89;8.43;1.01
71906;SPS30;59781;52.090;5.030;2023-01-15T07:05:47;6.04;5.73;4.20;2.18;17.67;17.61;17.28;15.25;10.08;1.00
71906;SPS30;59781;52.090;5.030;2023-01-15T07:08:13;6.54;6.23;4.67;2.60;21.01;20.95;20.61;18.54;12.82;0.94
71906;SPS30;59781;52.090;5.030;2023-01-15T07:10:39;5.80;5.53;4.17;2.35;18.96;18.91;18.61;16.80;11.70;0.93
71906;SPS30;59781;52.090;5.030;2023-01-15T07:13:05;5.10;4.86;3.66;2.06;16.63;16.58;16.32;14.72;10.25;0.94
71906;SPS30;59781;52.090;5.030;2023-01-15T07:15:34;4.02;3.83;2.93;1.71;13.78;13.74;13.55;12.33;8.76;0.91
71906;SPS30;59781;52.090;5.030;2023-01-15T07:18:03;4.27;4.08;3.13;1.84;14.87;14.83;14.62;13.34;9.54;0.90
71906;SPS30;59781;52.090;5.030;2023-01-15T07:20:29;4.47;4.27;3.23;1.85;14.92;14.88;14.66;13.28;9.34;0.92
71906;SPS30;59781;52.090;5.030;2023-01-15T07:22:55;4.38;4.18;3.13;1.74;14.08;14.04;13.81;12.43;8.59;0.94
71906;SPS30;59781;52.090;5.030;2023-01-15T07:25:21;4.84;4.60;3.41;1.83;14.79;14.74;14.49;12.90;8.72;0.96
71906;SPS30;59781;52.090;5.030;2023-01-15T07:27:47;5.22;4.95;3.62;1.87;15.15;15.10;14.81;13.06;8.60;1.00
71906;SPS30;59781;52.090;5.030;2023-01-15T07:30:12;7.76;7.37;5.43;2.86;23.19;23.12;22.70;20.13;13.46;0.99
71906;SPS30;59781;52.090;5.030;2023-01-15T07:32:39;6.67;6.36;4.80;2.73;22.03;21.97;21.64;19.56;13.69;0.94
71906;SPS30;59781;52.090;5.030;2023-01-15T07:35:06;4.81;4.59;3.46;1.96;15.87;15.83;15.58;14.09;9.86;0.94
71906;SPS30;59781;52.090;5.030;2023-01-15T07:37:32;5.67;5.41;4.09;2.33;18.81;18.76;18.47;16.72;11.72;0.93
71906;SPS30;59781;52.090;5.030;2023-01-15T07:39:57;5.48;5.22;3.93;2.21;17.83;17.78;17.50;15.78;10.98;0.93
71906;SPS30;59781;52.090;5.030;2023-01-15T07:42:23;5.71;5.44;4.06;2.23;18.02;17.97;17.67;15.84;10.87;0.95
71906;SPS30;59781;52.090;5.030;2023-01-15T07:45:08;6.05;5.75;4.23;2.23;18.07;18.01;17.68;15.68;10.48;0.97
71906;SPS30;59781;52.090;5.030;2023-01-15T07:47:53;5.30;5.04;3.74;2.02;16.32;16.27;15.99;14.27;9.68;0.94
71906;SPS30;59781;52.090;5.030;2023-01-15T07:50:37;5.17;4.92;3.66;1.99;16.10;16.05;15.78;14.11;9.62;0.94
71906;SPS30;59781;52.090;5.030;2023-01-15T07:53:03;5.66;5.39;4.01;2.18;17.62;17.57;17.27;15.44;10.52;0.95
71906;SPS30;59781;52.090;5.030;2023-01-15T07:55:29;5.04;4.79;3.50;1.81;14.63;14.59;14.31;12.61;8.30;0.99
71906;SPS30;59781;52.090;5.030;2023-01-15T07:57:55;6.06;5.74;4.18;2.13;17.29;17.23;16.89;14.83;9.67;1.00
71906;SPS30;59781;52.090;5.030;2023-01-15T08:00:22;5.82;5.51;4.01;2.03;16.44;16.39;16.06;14.08;9.13;1.01
71906;SPS30;59781;52.090;5.030;2023-01-15T08:02:49;6.70;6.34;4.55;2.22;18.02;17.95;17.57;15.22;9.59;1.04
71906;SPS30;59781;52.090;5.030;2023-01-15T08:05:16;5.65;5.36;3.89;1.96;15.89;15.84;15.52;13.59;8.79;1.03
71906;SPS30;59781;52.090;5.030;2023-01-15T08:07:43;6.57;6.23;4.54;2.32;18.81;18.75;18.39;16.16;10.56;1.03
71906;SPS30;59781;52.090;5.030;2023-01-15T08:10:10;6.14;5.82;4.24;2.16;17.51;17.45;17.11;15.03;9.80;1.03
71906;SPS30;59781;52.090;5.030;2023-01-15T08:12:38;5.77;5.47;4.00;2.06;16.67;16.62;16.30;14.36;9.43;1.01
71906;SPS30;59781;52.090;5.030;2023-01-15T08:15:23;5.53;5.24;3.84;1.98;16.07;16.02;15.71;13.86;9.13;1.00
71906;SPS30;59781;52.090;5.030;2023-01-15T08:17:50;4.92;4.67;3.43;1.79;14.47;14.42;14.15;12.51;8.29;1.00
71906;SPS30;59781;52.090;5.030;2023-01-15T08:20:19;5.64;5.36;3.93;2.05;16.58;16.52;16.21;14.33;9.49;1.00
71906;SPS30;59781;52.090;5.030;2023-01-15T08:22:49;6.73;6.38;4.63;2.33;18.90;18.83;18.46;16.15;10.44;1.02
71906;SPS30;59781;52.090;5.030;2023-01-15T08:25:16;5.66;5.37;3.91;2.00;16.24;16.18;15.87;13.95;9.13;1.02
71906;SPS30;59781;52.090;5.030;2023-01-15T08:27:46;6.70;6.35;4.63;2.37;19.18;19.12;18.75;16.48;10.77;1.01
71906;SPS30;59781;52.090;5.030;2023-01-15T08:30:13;6.47;6.13;4.46;2.26;18.33;18.27;17.91;15.71;10.21;1.01
71906;SPS30;59781;52.090;5.030;2023-01-15T08:32:43;6.22;5.90;4.30;2.21;17.90;17.84;17.50;15.40;10.09;0.99
71906;SPS30;59781;52.090;5.030;2023-01-15T08:35:09;6.17;5.85;4.23;2.12;17.18;17.12;16.77;14.65;9.42;1.02
71906;SPS30;59781;52.090;5.030;2023-01-15T08:37:37;6.14;5.82;4.22;2.13;17.28;17.22;16.88;14.78;9.57;1.00
71906;SPS30;59781;52.090;5.030;2023-01-15T08:40:04;6.40;6.07;4.38;2.17;17.64;17.57;17.21;15.00;9.58;1.01
71906;SPS30;59781;52.090;5.030;2023-01-15T08:42:30;6.94;6.57;4.72;2.30;18.68;18.61;18.21;15.78;9.94;1.02
71906;SPS30;59781;52.090;5.030;2023-01-15T08:44:56;6.94;6.56;4.65;2.17;17.66;17.59;17.18;14.69;8.90;1.06
71906;SPS30;59781;52.090;5.030;2023-01-15T08:47:22;8.05;7.61;5.44;2.61;21.20;21.12;20.65;17.81;11.06;1.04
71906;SPS30;59781;52.090;5.030;2023-01-15T08:49:47;7.36;6.97;5.02;2.47;20.02;19.95;19.53;16.97;10.76;1.03
71906;SPS30;59781;52.090;5.030;2023-01-15T08:52:13;8.01;7.58;5.46;2.69;21.80;21.72;21.26;18.47;11.72;1.02
71906;SPS30;59781;52.090;5.030;2023-01-15T08:54:39;7.24;6.85;4.93;2.42;19.63;19.56;19.15;16.62;10.52;1.03
71906;SPS30;59781;52.090;5.030;2023-01-15T08:57:05;7.05;6.68;4.81;2.36;19.16;19.09;18.69;16.23;10.28;1.04
71906;SPS30;59781;52.090;5.030;2023-01-15T08:59:33;8.23;7.79;5.61;2.76;22.43;22.35;21.88;19.02;12.08;1.05
71906;SPS30;59781;52.090;5.030;2023-01-15T09:01:59;7.06;6.69;4.86;2.45;19.89;19.82;19.43;17.02;11.02;1.05
71906;SPS30;59781;52.090;5.030;2023-01-15T09:04:25;7.31;6.93;5.02;2.51;20.35;20.28;19.87;17.35;11.16;1.05
71906;SPS30;59781;52.090;5.030;2023-01-15T09:06:51;7.10;6.72;4.84;2.37;19.28;19.21;18.80;16.33;10.35;1.08
71906;SPS30;59781;52.090;5.030;2023-01-15T09:09:17;7.24;6.85;4.93;2.41;19.53;19.46;19.04;16.51;10.42;1.08
71906;SPS30;59781;52.090;5.030;2023-01-15T09:11:43;6.51;6.16;4.44;2.18;17.68;17.61;17.24;14.98;9.49;1.08
71906;SPS30;59781;52.090;5.030;2023-01-15T09:14:11;6.94;6.57;4.76;2.38;19.29;19.22;18.83;16.44;10.56;1.06
71906;SPS30;59781;52.090;5.030;2023-01-15T09:16:39;6.84;6.47;4.64;2.25;18.28;18.21;17.82;15.42;9.67;1.07
71906;SPS30;59781;52.090;5.030;2023-01-15T09:19:06;7.21;6.82;4.87;2.33;18.91;18.83;18.41;15.86;9.82;1.09
71906;SPS30;59781;52.090;5.030;2023-01-15T09:21:34;6.89;6.53;4.68;2.27;18.45;18.38;17.98;15.56;9.77;1.08
71906;SPS30;59781;52.090;5.030;2023-01-15T09:23:59;7.38;6.99;5.02;2.45;19.88;19.80;19.38;16.80;10.58;1.07
71906;SPS30;59781;52.090;5.030;2023-01-15T09:26:28;6.48;6.14;4.42;2.17;17.63;17.57;17.20;14.94;9.48;1.06
71906;SPS30;59781;52.090;5.030;2023-01-15T09:29:00;7.28;6.89;4.95;2.42;19.66;19.58;19.17;16.62;10.49;1.05
71906;SPS30;59781;52.090;5.030;2023-01-15T09:31:28;6.59;6.24;4.50;2.23;18.09;18.02;17.65;15.37;9.80;1.04
71906;SPS30;59781;52.090;5.030;2023-01-15T09:33:55;6.36;6.03;4.38;2.21;17.92;17.85;17.50;15.33;9.93;1.03
71906;SPS30;59781;52.090;5.030;2023-01-15T09:38:57;6.98;6.62;4.80;2.41;19.52;19.45;19.06;16.67;10.74;1.03
71906;SPS30;59781;52.090;5.030;2023-01-15T09:41:26;6.65;6.30;4.56;2.28;18.52;18.45;18.08;15.79;10.15;1.04
71906;SPS30;59781;52.090;5.030;2023-01-15T09:53:04;6.54;6.20;4.50;2.28;18.49;18.43;18.06;15.83;10.27;1.02
71906;SPS30;59781;52.090;5.030;2023-01-15T09:56:27;6.34;6.01;4.35;2.19;17.76;17.70;17.34;15.17;9.79;1.04
71906;SPS30;59781;52.090;5.030;2023-01-15T09:58:58;5.90;5.60;4.08;2.08;16.87;16.81;16.49;14.49;9.46;1.02